Bingham Lake, Minnesota
Current Conditions -  °F | °C
As of 3:13 AM on Wednesday 26 Nov 2014 (Local Time) from KMWM Reporting Station
Light Snow Light Snow  
Wind Chill: 19°   Ceiling: 2100
Heat Index: 27°   Visibility: 2mi
Dew Point: 25°   Wind: 7mph
Humidity: 93%   Direction: 100°E
Pressure: 29.89"   Gusts: NA
Location:  43.91°N, 95.05°W
Report Text: KMWM 260913Z AUTO 10006KT 2SM -SN OVC021 M03/M04 A2989 RMK AO2
Loading
Personal Weather Stations






























Interactive Weather Map New forecast layout! Learn more

10-Day Weather Forecast

Advertisements
Track Severe Weather on mobile